createdAt,value
2018-11-27T00:00:27.206Z,39.27
2018-11-27T00:03:02.201Z,39.35
2018-11-27T00:05:30.830Z,39.02
2018-11-27T00:07:59.153Z,38.44
2018-11-27T00:10:27.852Z,38.28
2018-11-27T00:12:56.048Z,39.08
2018-11-27T00:15:24.255Z,39.08
2018-11-27T00:17:52.603Z,38.95
2018-11-27T00:20:20.812Z,39.27
2018-11-27T00:22:49.003Z,39.25
2018-11-27T00:25:17.915Z,38.93
2018-11-27T00:27:46.559Z,39.21
2018-11-27T00:30:17.810Z,38.74
2018-11-27T00:32:45.779Z,39.20
2018-11-27T00:35:14.597Z,38.47
2018-11-27T00:37:42.814Z,38.38
2018-11-27T00:40:11.831Z,38.40
2018-11-27T00:42:41.131Z,38.45
2018-11-27T00:45:10.157Z,38.39
2018-11-27T00:47:38.539Z,38.33
2018-11-27T00:50:16.336Z,38.38
2018-11-27T00:52:45.583Z,38.40
2018-11-27T00:55:14.587Z,38.50
2018-11-27T00:57:43.460Z,38.43
2018-11-27T01:00:12.651Z,38.53
2018-11-27T01:02:40.854Z,38.39
2018-11-27T01:05:10.066Z,38.56
2018-11-27T01:07:38.947Z,38.46
2018-11-27T01:10:08.472Z,38.46
2018-11-27T01:12:37.236Z,38.52
2018-11-27T01:15:05.641Z,38.56
2018-11-27T01:17:34.582Z,38.59
2018-11-27T01:20:02.788Z,38.62
2018-11-27T01:22:31.288Z,38.59
2018-11-27T01:24:59.728Z,38.61
2018-11-27T01:27:27.940Z,38.56
2018-11-27T01:29:56.407Z,38.65
2018-11-27T01:32:24.611Z,38.74
2018-11-27T01:34:53.067Z,38.87
2018-11-27T01:37:21.347Z,38.79
2018-11-27T01:39:49.573Z,39.10
2018-11-27T01:42:17.775Z,39.00
2018-11-27T01:44:46.263Z,38.95
2018-11-27T01:47:14.459Z,38.65
2018-11-27T01:49:42.928Z,38.56
2018-11-27T01:52:11.480Z,38.69
2018-11-27T01:54:39.943Z,38.73
2018-11-27T01:57:08.460Z,38.72
2018-11-27T01:59:36.655Z,38.66
2018-11-27T02:02:04.859Z,38.57
2018-11-27T02:04:33.095Z,38.43
2018-11-27T02:07:25.427Z,38.29
2018-11-27T02:09:53.883Z,38.26
2018-11-27T02:12:22.108Z,38.14
2018-11-27T02:14:50.320Z,38.19
2018-11-27T02:17:18.545Z,38.12
2018-11-27T02:19:47.955Z,38.27
2018-11-27T02:22:16.418Z,38.32
2018-11-27T02:24:44.920Z,38.38
2018-11-27T02:27:13.106Z,38.33
2018-11-27T02:29:41.646Z,38.32
2018-11-27T02:32:12.196Z,38.33
2018-11-27T02:34:40.402Z,38.35
2018-11-27T02:37:08.603Z,38.45
2018-11-27T02:39:36.832Z,38.89
2018-11-27T02:42:05.114Z,39.37
2018-11-27T02:44:33.659Z,39.43
2018-11-27T02:47:01.867Z,39.08
2018-11-27T02:49:30.156Z,39.14
2018-11-27T02:51:58.343Z,39.24
2018-11-27T02:54:26.795Z,39.44
2018-11-27T02:56:55.287Z,38.95
2018-11-27T02:59:23.879Z,38.61
2018-11-27T03:01:52.429Z,38.63
2018-11-27T03:04:20.716Z,38.69
2018-11-27T03:06:49.180Z,38.79
2018-11-27T03:09:17.485Z,38.73
2018-11-27T03:11:46.063Z,38.72
2018-11-27T03:14:14.263Z,38.68
2018-11-27T03:16:42.825Z,38.64
2018-11-27T03:19:13.771Z,38.67
2018-11-27T03:21:41.972Z,39.11
2018-11-27T03:24:10.536Z,39.21
2018-11-27T03:26:39.089Z,39.08
2018-11-27T03:29:07.590Z,39.21
2018-11-27T03:31:36.088Z,39.02
2018-11-27T03:34:04.620Z,39.00
2018-11-27T03:36:32.824Z,38.82
2018-11-27T03:39:01.298Z,38.77
2018-11-27T03:41:29.499Z,38.66
2018-11-27T03:43:58.082Z,38.41
2018-11-27T03:46:26.571Z,38.38
2018-11-27T03:48:54.768Z,38.37
2018-11-27T03:51:23.544Z,38.22
2018-11-27T03:53:52.003Z,38.30
2018-11-27T03:56:20.260Z,38.38
2018-11-27T03:58:48.460Z,38.32
2018-11-27T04:01:16.908Z,38.31
2018-11-27T04:03:45.729Z,38.40
2018-11-27T04:06:13.931Z,38.50
2018-11-27T04:08:42.152Z,38.50
2018-11-27T04:11:10.365Z,38.57
2018-11-27T04:13:38.667Z,38.57
2018-11-27T04:16:06.864Z,38.60
2018-11-27T04:18:35.197Z,38.60
2018-11-27T04:21:03.737Z,38.65
2018-11-27T04:23:31.956Z,38.60
2018-11-27T04:26:00.164Z,38.64
2018-11-27T04:28:28.348Z,38.59
2018-11-27T04:30:56.552Z,38.58
2018-11-27T04:33:24.916Z,38.55
2018-11-27T04:35:53.236Z,38.83
2018-11-27T04:38:22.020Z,38.87
2018-11-27T04:40:50.263Z,38.76
2018-11-27T04:43:20.609Z,38.95
2018-11-27T04:45:49.151Z,38.96
2018-11-27T04:48:17.455Z,38.85
2018-11-27T04:50:45.675Z,39.00
2018-11-27T04:53:14.119Z,39.02
2018-11-27T04:55:42.334Z,39.09
2018-11-27T04:58:10.546Z,39.24
2018-11-27T05:00:38.772Z,38.98
2018-11-27T05:03:07.011Z,39.13
2018-11-27T05:05:35.255Z,38.99
2018-11-27T05:08:03.468Z,39.20
2018-11-27T05:10:31.672Z,38.68
2018-11-27T05:12:59.932Z,39.21
2018-11-27T05:15:28.385Z,39.23
2018-11-27T05:17:59.839Z,38.74
2018-11-27T05:20:28.117Z,38.49
2018-11-27T05:22:56.311Z,38.49
2018-11-27T05:25:24.507Z,38.55
2018-11-27T05:27:56.848Z,38.21
2018-11-27T05:30:26.127Z,38.36
2018-11-27T05:32:54.426Z,38.96
2018-11-27T05:35:32.356Z,37.13
2018-11-27T05:38:01.574Z,38.08
2018-11-27T05:40:30.114Z,38.55
2018-11-27T05:42:58.947Z,39.68
2018-11-27T05:45:27.336Z,39.52
2018-11-27T05:47:55.539Z,39.22
2018-11-27T05:50:23.755Z,39.41
2018-11-27T05:52:52.334Z,38.67
2018-11-27T05:55:20.624Z,38.92
2018-11-27T05:57:49.538Z,38.61
2018-11-27T06:00:21.503Z,38.37
2018-11-27T06:02:58.026Z,38.54
2018-11-27T06:05:26.735Z,37.84
2018-11-27T06:07:54.959Z,37.99
2018-11-27T06:10:23.320Z,36.99
2018-11-27T06:12:51.719Z,37.25
2018-11-27T06:15:20.655Z,36.96
2018-11-27T06:17:49.499Z,38.02
2018-11-27T06:20:18.311Z,37.06
2018-11-27T06:22:46.527Z,37.78
2018-11-27T06:25:18.095Z,37.70
2018-11-27T06:27:46.883Z,37.37
2018-11-27T06:30:16.060Z,37.45
2018-11-27T06:32:44.259Z,37.56
2018-11-27T06:35:13.548Z,37.57
2018-11-27T06:37:42.003Z,37.78
2018-11-27T06:40:20.147Z,38.29
2018-11-27T06:42:48.663Z,38.47
2018-11-27T06:45:20.110Z,38.62
2018-11-27T06:47:48.844Z,39.61
2018-11-27T06:50:17.351Z,38.69
2018-11-27T06:52:45.547Z,37.80
2018-11-27T06:55:14.223Z,37.71
2018-11-27T06:57:42.433Z,37.58
2018-11-27T07:00:14.304Z,37.79
2018-11-27T07:02:42.815Z,37.92
2018-11-27T07:05:11.630Z,38.04
2018-11-27T07:07:40.020Z,37.93
2018-11-27T07:10:12.431Z,37.63
2018-11-27T07:12:40.635Z,37.69
2018-11-27T07:15:10.191Z,37.83
2018-11-27T07:17:38.460Z,37.73
2018-11-27T07:20:07.917Z,37.85
2018-11-27T07:22:37.641Z,37.66
2018-11-27T07:25:06.447Z,38.94
2018-11-27T07:27:34.656Z,39.12
2018-11-27T07:30:02.863Z,38.51
2018-11-27T07:32:33.678Z,38.30
2018-11-27T07:35:02.242Z,38.50
2018-11-27T07:37:30.463Z,38.19
2018-11-27T07:40:03.236Z,38.71
2018-11-27T07:42:28.036Z,38.35
2018-11-27T07:44:56.223Z,38.31
2018-11-27T07:47:24.524Z,37.88
2018-11-27T07:49:53.051Z,38.35
2018-11-27T07:52:21.251Z,38.08
2018-11-27T07:54:49.453Z,38.10
2018-11-27T07:57:17.747Z,38.53
2018-11-27T07:59:45.964Z,38.34
2018-11-27T08:02:14.159Z,38.29
2018-11-27T08:04:42.897Z,38.39
2018-11-27T08:07:11.199Z,38.17
2018-11-27T08:09:40.015Z,39.01
2018-11-27T08:12:08.455Z,38.13
2018-11-27T08:14:36.675Z,37.88
2018-11-27T08:17:04.896Z,37.85
2018-11-27T08:19:33.117Z,37.98
2018-11-27T08:22:02.007Z,38.02
2018-11-27T08:24:30.560Z,38.78
2018-11-27T08:26:58.755Z,38.32
2018-11-27T08:29:26.983Z,37.79
2018-11-27T08:31:55.491Z,38.33
2018-11-27T08:34:23.707Z,38.42
2018-11-27T08:36:51.912Z,38.05
2018-11-27T08:39:20.159Z,38.29
2018-11-27T08:41:48.375Z,37.79
2018-11-27T08:44:16.848Z,38.55
2018-11-27T08:46:45.048Z,37.90
2018-11-27T08:49:13.539Z,38.34
2018-11-27T08:51:41.747Z,38.23
2018-11-27T08:54:09.947Z,38.54
2018-11-27T08:56:38.168Z,38.43
2018-11-27T08:59:06.695Z,38.18
2018-11-27T09:01:35.431Z,38.94
2018-11-27T09:04:03.636Z,38.25
2018-11-27T09:06:31.931Z,38.27
2018-11-27T09:09:00.454Z,38.06
2018-11-27T09:11:28.647Z,37.87
2018-11-27T09:13:56.932Z,37.73
2018-11-27T09:16:25.440Z,37.57
2018-11-27T09:18:53.776Z,37.98
2018-11-27T09:21:22.299Z,37.73
2018-11-27T09:23:50.882Z,37.52
2018-11-27T09:26:19.465Z,38.23
2018-11-27T09:28:48.044Z,38.16
2018-11-27T09:31:16.247Z,37.88
2018-11-27T09:33:44.629Z,37.77
2018-11-27T09:36:12.823Z,38.59
2018-11-27T09:38:41.019Z,38.36
2018-11-27T09:41:09.244Z,38.17
2018-11-27T09:43:37.449Z,38.33
2018-11-27T09:46:05.809Z,37.90
2018-11-27T09:48:34.359Z,38.30
2018-11-27T09:51:02.951Z,38.33
2018-11-27T09:53:32.351Z,38.40
2018-11-27T09:56:00.911Z,38.50
2018-11-27T09:58:29.200Z,37.86
2018-11-27T10:00:57.464Z,38.11
2018-11-27T10:03:25.660Z,38.02
2018-11-27T10:05:54.096Z,37.95
2018-11-27T10:08:22.295Z,37.69
2018-11-27T10:10:50.911Z,37.58
2018-11-27T10:13:19.192Z,38.11
2018-11-27T10:15:47.430Z,37.62
2018-11-27T10:18:15.824Z,37.83
2018-11-27T10:20:44.320Z,38.03
2018-11-27T10:23:13.136Z,37.93
2018-11-27T10:25:41.324Z,37.97
2018-11-27T10:28:09.556Z,38.51
2018-11-27T10:30:37.772Z,38.41
2018-11-27T10:33:07.955Z,38.45
2018-11-27T10:35:49.368Z,39.00
2018-11-27T10:38:17.876Z,38.53
2018-11-27T10:40:46.311Z,38.20
2018-11-27T10:43:19.492Z,38.60
2018-11-27T10:45:44.991Z,39.04
2018-11-27T10:48:13.284Z,39.11
2018-11-27T10:50:41.477Z,40.09
2018-11-27T10:53:10.549Z,40.34
2018-11-27T10:55:39.012Z,40.62
2018-11-27T10:58:07.215Z,41.06
2018-11-27T11:00:52.706Z,41.10
2018-11-27T11:03:38.994Z,41.38
2018-11-27T11:06:07.811Z,41.88
2018-11-27T11:08:36.355Z,42.05
2018-11-27T11:11:04.551Z,42.17
2018-11-27T11:13:32.761Z,42.27
2018-11-27T11:16:00.971Z,42.23
2018-11-27T11:18:29.259Z,42.41
2018-11-27T11:20:57.861Z,42.47
2018-11-27T11:23:26.075Z,42.45
2018-11-27T11:25:54.651Z,42.56
2018-11-27T11:28:24.219Z,42.75
2018-11-27T11:30:52.415Z,42.65
2018-11-27T11:33:21.061Z,42.72
2018-11-27T11:35:49.771Z,42.83
2018-11-27T11:38:18.021Z,42.92
2018-11-27T11:40:46.280Z,43.04
2018-11-27T11:43:14.592Z,43.10
2018-11-27T11:45:43.083Z,43.00
2018-11-27T11:48:11.275Z,43.06
2018-11-27T11:50:39.760Z,42.94
2018-11-27T11:53:17.872Z,43.04
2018-11-27T11:55:46.542Z,42.97
2018-11-27T11:58:14.796Z,42.92
2018-11-27T12:00:51.310Z,42.83
2018-11-27T12:03:22.023Z,42.83
2018-11-27T12:05:50.567Z,42.83
2018-11-27T12:08:19.387Z,42.78
2018-11-27T12:10:47.579Z,42.98
2018-11-27T12:13:16.136Z,43.08
2018-11-27T12:15:44.920Z,43.08
2018-11-27T12:18:13.195Z,43.09
2018-11-27T12:20:42.000Z,43.17
2018-11-27T12:23:11.175Z,43.10
2018-11-27T12:25:39.706Z,43.16
2018-11-27T12:28:14.360Z,43.21
2018-11-27T12:30:40.074Z,43.25
2018-11-27T12:33:09.539Z,43.25
2018-11-27T12:35:37.787Z,43.28
2018-11-27T12:38:06.104Z,43.29
2018-11-27T12:40:34.311Z,43.25
2018-11-27T12:43:02.520Z,43.28
2018-11-27T12:45:32.086Z,43.26
2018-11-27T12:48:00.871Z,43.24
2018-11-27T12:50:33.055Z,43.23
2018-11-27T12:53:01.667Z,43.21
2018-11-27T12:55:29.972Z,43.13
2018-11-27T12:57:58.196Z,43.06
2018-11-27T13:00:26.675Z,43.26
2018-11-27T13:02:55.787Z,43.41
2018-11-27T13:05:28.044Z,43.56
2018-11-27T13:08:00.392Z,43.71
2018-11-27T13:10:28.627Z,43.88
2018-11-27T13:12:56.819Z,43.99
2018-11-27T13:15:25.941Z,44.11
2018-11-27T13:17:54.329Z,44.21
2018-11-27T13:20:22.552Z,44.34
2018-11-27T13:22:51.395Z,44.37
2018-11-27T13:25:23.879Z,44.38
2018-11-27T13:27:52.731Z,44.47
2018-11-27T13:30:30.955Z,44.52
2018-11-27T13:32:59.848Z,44.50
2018-11-27T13:35:28.047Z,44.53
2018-11-27T13:37:56.254Z,44.49
2018-11-27T13:40:24.923Z,44.51
2018-11-27T13:42:53.391Z,44.56
2018-11-27T13:45:21.591Z,44.58
2018-11-27T13:47:50.304Z,44.52
2018-11-27T13:50:18.864Z,44.47
2018-11-27T13:52:47.316Z,44.56
2018-11-27T13:55:19.000Z,44.52
2018-11-27T13:57:47.194Z,44.43
2018-11-27T14:00:15.823Z,44.52
2018-11-27T14:02:45.184Z,44.51
2018-11-27T14:05:14.507Z,44.50
2018-11-27T14:07:43.166Z,44.46
2018-11-27T14:10:11.775Z,44.43
2018-11-27T14:12:40.331Z,44.54
2018-11-27T14:15:11.803Z,44.60
2018-11-27T14:17:40.271Z,44.50
2018-11-27T14:20:08.723Z,44.62
2018-11-27T14:22:37.321Z,44.64
2018-11-27T14:25:05.639Z,44.60
2018-11-27T14:27:34.099Z,44.68
2018-11-27T14:30:02.296Z,44.57
2018-11-27T14:32:30.515Z,44.58
2018-11-27T14:34:59.977Z,44.67
2018-11-27T14:37:27.836Z,44.65
2018-11-27T14:39:58.359Z,44.59
2018-11-27T14:42:25.179Z,44.58
2018-11-27T14:44:53.639Z,44.64
2018-11-27T14:47:22.152Z,44.56
2018-11-27T14:49:50.475Z,44.51
2018-11-27T14:52:18.691Z,44.60
2018-11-27T14:54:46.880Z,44.60
2018-11-27T14:57:15.343Z,44.62
2018-11-27T14:59:43.564Z,44.55
2018-11-27T15:02:11.765Z,44.49
2018-11-27T15:04:40.267Z,44.47
2018-11-27T15:07:08.764Z,44.46
2018-11-27T15:09:37.263Z,44.42
2018-11-27T15:12:05.472Z,44.39
2018-11-27T15:14:33.681Z,44.51
2018-11-27T15:17:01.887Z,44.39
2018-11-27T15:19:30.628Z,44.38
2018-11-27T15:21:58.855Z,44.32
2018-11-27T15:24:27.063Z,44.36
2018-11-27T15:26:55.493Z,44.31
2018-11-27T15:29:24.088Z,44.27
2018-11-27T15:31:52.275Z,44.22
2018-11-27T15:34:20.894Z,44.09
2018-11-27T15:36:49.089Z,44.14
2018-11-27T15:39:17.692Z,44.04
2018-11-27T15:41:45.907Z,44.00
2018-11-27T15:44:14.483Z,43.97
2018-11-27T15:46:42.969Z,43.92
2018-11-27T15:49:11.556Z,43.84
2018-11-27T15:51:40.316Z,43.81
2018-11-27T15:54:08.703Z,43.75
2018-11-27T15:56:37.147Z,43.73
2018-11-27T15:59:05.643Z,43.66
2018-11-27T16:01:34.162Z,43.62
2018-11-27T16:04:02.356Z,43.60
2018-11-27T16:06:30.559Z,43.52
2018-11-27T16:08:59.056Z,43.49
2018-11-27T16:11:28.195Z,43.43
2018-11-27T16:13:57.089Z,43.43
2018-11-27T16:16:25.471Z,43.41
2018-11-27T16:18:54.568Z,43.36
2018-11-27T16:21:23.144Z,43.30
2018-11-27T16:23:51.327Z,43.28
2018-11-27T16:26:19.869Z,43.25
2018-11-27T16:28:48.078Z,43.20
2018-11-27T16:31:16.983Z,43.18
2018-11-27T16:33:45.215Z,43.12
2018-11-27T16:36:13.822Z,43.12
2018-11-27T16:38:42.020Z,43.05
2018-11-27T16:41:10.306Z,43.01
2018-11-27T16:43:38.487Z,42.96
2018-11-27T16:46:06.812Z,42.94
2018-11-27T16:48:35.115Z,42.89
2018-11-27T16:51:03.411Z,42.89
2018-11-27T16:53:31.924Z,42.86
2018-11-27T16:56:00.132Z,42.77
2018-11-27T16:58:28.599Z,42.78
2018-11-27T17:00:56.901Z,42.76
2018-11-27T17:03:33.604Z,42.74
2018-11-27T17:06:12.595Z,42.70
2018-11-27T17:08:42.036Z,42.71
2018-11-27T17:13:38.776Z,42.72
2018-11-27T17:16:07.098Z,42.72
2018-11-27T17:18:35.364Z,42.72
2018-11-27T17:21:03.879Z,42.70
2018-11-27T17:23:32.088Z,42.64
2018-11-27T17:26:03.995Z,42.57
2018-11-27T17:28:30.791Z,42.54
2018-11-27T17:31:14.992Z,42.49
2018-11-27T17:33:53.296Z,42.49
2018-11-27T17:36:21.843Z,42.43
2018-11-27T17:38:50.048Z,42.34
2018-11-27T17:41:18.308Z,42.31
2018-11-27T17:43:46.596Z,42.30
2018-11-27T17:46:14.831Z,42.25
2018-11-27T17:48:43.032Z,42.21
2018-11-27T17:51:11.257Z,42.11
2018-11-27T17:53:39.566Z,42.12
2018-11-27T17:56:08.050Z,42.12
2018-11-27T17:58:36.535Z,42.04
2018-11-27T18:01:04.816Z,41.77
2018-11-27T18:03:33.404Z,41.67
2018-11-27T18:06:01.862Z,41.42
2018-11-27T18:08:30.441Z,41.23
2018-11-27T18:10:59.268Z,41.37
2018-11-27T18:13:27.549Z,41.39
2018-11-27T18:15:56.437Z,41.27
2018-11-27T18:18:25.002Z,41.31
2018-11-27T18:20:53.299Z,41.31
2018-11-27T18:23:21.963Z,41.38
2018-11-27T18:25:50.447Z,41.07
2018-11-27T18:28:18.681Z,40.93
2018-11-27T18:30:46.956Z,40.60
2018-11-27T18:33:15.628Z,40.65
2018-11-27T18:35:44.170Z,40.47
2018-11-27T18:38:12.628Z,40.96
2018-11-27T18:40:40.827Z,40.78
2018-11-27T18:43:09.023Z,40.95
2018-11-27T18:45:37.727Z,40.81
2018-11-27T18:48:10.111Z,40.82
2018-11-27T18:50:37.783Z,40.81
2018-11-27T18:53:06.931Z,40.80
2018-11-27T18:55:35.131Z,40.74
2018-11-27T18:58:03.663Z,40.72
2018-11-27T19:00:32.647Z,40.70
2018-11-27T19:03:01.110Z,40.64
2018-11-27T19:05:29.764Z,40.65
2018-11-27T19:07:58.334Z,40.61
2018-11-27T19:10:33.339Z,40.59
2018-11-27T19:13:01.915Z,40.60
2018-11-27T19:15:36.960Z,40.56
2018-11-27T19:18:10.015Z,40.56
2018-11-27T19:20:38.324Z,40.55
2018-11-27T19:23:06.950Z,40.55
2018-11-27T19:25:35.231Z,40.46
2018-11-27T19:28:03.444Z,40.61
2018-11-27T19:30:32.848Z,40.52
2018-11-27T19:33:01.718Z,40.34
2018-11-27T19:35:30.163Z,40.42
2018-11-27T19:37:58.458Z,41.47
2018-11-27T19:40:27.707Z,42.33
2018-11-27T19:42:55.906Z,44.53
2018-11-27T19:45:24.984Z,46.48
2018-11-27T19:47:53.667Z,46.95
2018-11-27T19:50:21.874Z,47.09
2018-11-27T19:52:51.231Z,46.77
2018-11-27T19:55:22.552Z,46.87
2018-11-27T19:57:50.813Z,46.81
2018-11-27T20:00:26.101Z,45.70
2018-11-27T20:02:54.451Z,44.90
2018-11-27T20:05:23.354Z,44.91
2018-11-27T20:07:51.942Z,44.71
2018-11-27T20:10:20.495Z,44.03
2018-11-27T20:12:49.158Z,44.06
2018-11-27T20:15:18.280Z,44.45
2018-11-27T20:17:47.023Z,43.71
2018-11-27T20:20:16.254Z,43.80
2018-11-27T20:22:44.847Z,43.18
2018-11-27T20:25:14.267Z,43.28
2018-11-27T20:27:42.936Z,42.86
2018-11-27T20:30:21.818Z,42.96
2018-11-27T20:32:50.701Z,43.96
2018-11-27T20:35:19.069Z,42.83
2018-11-27T20:37:47.919Z,41.86
2018-11-27T20:40:16.740Z,42.40
2018-11-27T20:42:47.135Z,42.37
2018-11-27T20:45:19.337Z,42.24
2018-11-27T20:47:46.167Z,42.40
2018-11-27T20:50:23.979Z,42.34
2018-11-27T20:52:52.226Z,41.65
2018-11-27T20:55:20.747Z,41.95
2018-11-27T20:58:07.603Z,42.13
2018-11-27T21:00:37.168Z,42.13
2018-11-27T21:03:06.145Z,42.32
2018-11-27T21:05:34.963Z,41.88
2018-11-27T21:08:03.895Z,41.84
2018-11-27T21:10:32.112Z,42.41
2018-11-27T21:13:00.469Z,42.61
2018-11-27T21:15:29.052Z,42.70
2018-11-27T21:18:03.592Z,42.93
2018-11-27T21:20:31.879Z,43.39
2018-11-27T21:23:00.122Z,43.44
2018-11-27T21:25:28.823Z,43.19
2018-11-27T21:27:57.759Z,43.69
2018-11-27T21:30:26.303Z,43.38
2018-11-27T21:32:54.547Z,42.99
2018-11-27T21:35:22.804Z,42.91
2018-11-27T21:37:51.435Z,42.62
2018-11-27T21:40:19.828Z,42.70
2018-11-27T21:42:48.040Z,42.37
2018-11-27T21:45:23.013Z,42.28
2018-11-27T21:47:51.721Z,42.36
2018-11-27T21:50:38.184Z,41.62
2018-11-27T21:53:06.423Z,41.74
2018-11-27T21:55:35.516Z,41.76
2018-11-27T21:58:04.271Z,41.55
2018-11-27T22:00:32.855Z,40.81
2018-11-27T22:03:01.661Z,40.68
2018-11-27T22:05:30.159Z,41.36
2018-11-27T22:07:58.460Z,41.43
2018-11-27T22:10:26.777Z,41.22
2018-11-27T22:12:55.652Z,41.20
2018-11-27T22:15:42.967Z,41.26
2018-11-27T22:18:11.509Z,41.39
2018-11-27T22:20:39.712Z,41.33
2018-11-27T22:23:08.679Z,41.30
2018-11-27T22:25:36.879Z,41.28
2018-11-27T22:28:05.333Z,41.29
2018-11-27T22:30:33.696Z,41.09
2018-11-27T22:33:02.276Z,41.11
2018-11-27T22:35:30.935Z,41.10
2018-11-27T22:37:59.270Z,40.82
2018-11-27T22:40:27.932Z,41.15
2018-11-27T22:42:56.319Z,40.74
2018-11-27T22:45:26.734Z,41.07
2018-11-27T22:47:58.265Z,39.78
2018-11-27T22:50:26.653Z,39.77
2018-11-27T22:52:54.868Z,39.87
2018-11-27T22:55:23.078Z,39.89
2018-11-27T22:57:52.303Z,40.43
2018-11-27T23:00:42.561Z,40.32
2018-11-27T23:03:12.751Z,40.36
2018-11-27T23:05:43.216Z,40.55
2018-11-27T23:08:11.812Z,40.21
2018-11-27T23:10:41.142Z,39.95
2018-11-27T23:13:09.604Z,40.08
2018-11-27T23:15:37.902Z,39.41
2018-11-27T23:18:06.795Z,39.83
2018-11-27T23:20:35.555Z,41.67
2018-11-27T23:23:04.040Z,40.56
2018-11-27T23:25:32.231Z,40.68
2018-11-27T23:28:01.019Z,41.17
2018-11-27T23:30:29.331Z,41.28
2018-11-27T23:32:57.628Z,41.19
2018-11-27T23:35:26.161Z,41.37
2018-11-27T23:37:54.396Z,41.35
2018-11-27T23:40:22.918Z,41.55
2018-11-27T23:42:51.395Z,41.29
2018-11-27T23:45:20.756Z,41.58
2018-11-27T23:47:49.360Z,41.43
2018-11-27T23:50:18.440Z,41.61
2018-11-27T23:52:46.818Z,41.62
2018-11-27T23:55:15.510Z,41.58
2018-11-27T23:57:43.987Z,41.64
